createdAt,value
2018-04-17T04:09:22.130Z,48.38
2018-04-17T04:11:25.857Z,31.75
2018-04-17T04:13:30.504Z,34.13
2018-04-17T04:15:33.378Z,35.05
2018-04-17T04:17:42.387Z,35.70
2018-04-17T04:22:13.695Z,30.27
2018-04-17T04:26:52.639Z,33.15
2018-04-17T04:31:03.917Z,30.30
2018-04-17T04:33:06.461Z,31.58
2018-04-17T04:35:10.266Z,24.98
2018-04-17T04:37:13.180Z,27.83
2018-04-17T04:39:17.458Z,31.02
2018-04-17T04:41:21.295Z,32.90
2018-04-17T04:43:23.331Z,33.58
2018-04-17T04:45:29.541Z,28.95
2018-04-17T04:47:30.685Z,32.90
2018-04-17T04:49:31.980Z,29.20
2018-04-17T04:51:36.038Z,30.73
2018-04-17T04:53:37.327Z,29.42
2018-04-17T04:55:45.259Z,32.03
2018-04-17T04:57:46.661Z,26.73
2018-04-17T04:59:47.789Z,24.77
2018-04-17T05:01:48.993Z,27.00
2018-04-17T05:03:50.446Z,30.98
2018-04-17T05:05:51.955Z,31.20
2018-04-17T05:07:54.403Z,34.55
2018-04-17T05:09:55.949Z,26.73
2018-04-17T05:11:57.147Z,37.05
2018-04-17T05:14:01.095Z,27.55
2018-04-17T05:18:12.199Z,29.85
2018-04-17T05:20:17.252Z,26.55
2018-04-17T05:22:19.800Z,26.15
2018-04-17T05:24:23.992Z,23.40
2018-04-17T05:26:25.199Z,26.23
2018-04-17T05:28:41.172Z,33.40
2018-04-17T05:30:42.889Z,29.10
2018-04-17T05:32:44.193Z,25.17
2018-04-17T05:34:45.422Z,23.77
2018-04-17T05:36:46.900Z,30.17
2018-04-17T05:38:49.855Z,32.80
2018-04-17T05:43:44.271Z,25.00
2018-04-17T05:45:57.087Z,24.93
2018-04-17T05:48:02.992Z,32.33
2018-04-17T05:50:09.054Z,29.00
2018-04-17T05:52:18.904Z,27.67
2018-04-17T05:54:28.004Z,24.97
2018-04-17T06:01:22.227Z,24.60
2018-04-17T06:08:03.372Z,21.90
2018-04-17T07:30:38.810Z,16.30
2018-04-17T07:56:59.662Z,17.10
2018-04-17T07:59:02.533Z,16.83
2018-04-17T08:01:05.354Z,14.93
2018-04-17T08:03:08.344Z,12.50
2018-04-17T08:05:12.174Z,14.70
2018-04-17T08:07:15.068Z,9.50
2018-04-17T08:09:17.883Z,18.17
2018-04-17T08:11:20.752Z,17.43
2018-04-17T08:13:23.565Z,16.53
2018-04-17T08:15:26.435Z,9.47
2018-04-17T08:17:29.237Z,11.13
2018-04-17T08:19:32.057Z,12.20
2018-04-17T08:21:34.882Z,12.77
2018-04-17T08:23:37.674Z,11.53
2018-04-17T08:25:40.501Z,13.50
2018-04-17T08:27:43.395Z,15.17
2018-04-17T08:29:46.206Z,17.23
2018-04-17T08:31:49.034Z,17.03
2018-04-17T08:33:51.853Z,9.63
2018-04-17T08:35:54.689Z,15.63
2018-04-17T08:37:57.533Z,13.53
2018-04-17T08:40:00.376Z,12.73
2018-04-17T08:42:03.185Z,12.70
2018-04-17T08:44:06.012Z,7.20
2018-04-17T08:46:08.857Z,15.93
2018-04-17T08:48:11.689Z,12.27
2018-04-17T08:50:14.590Z,9.50
2018-04-17T08:52:17.440Z,11.83
2018-04-17T08:54:20.249Z,18.13
2018-04-17T08:56:23.073Z,15.83
2018-04-17T08:58:25.904Z,13.37
2018-04-17T09:00:28.750Z,11.27
2018-04-17T09:02:31.565Z,10.13
2018-04-17T09:04:34.397Z,13.53
2018-04-17T09:06:37.193Z,7.97
2018-04-17T09:08:40.022Z,8.03
2018-04-17T09:10:42.881Z,5.27
2018-04-17T09:12:45.817Z,10.13
2018-04-17T09:14:48.741Z,6.63
2018-04-17T09:16:51.546Z,6.17
2018-04-17T09:18:54.646Z,9.30
2018-04-17T09:20:57.581Z,7.67
2018-04-17T09:23:00.460Z,13.80
2018-04-17T09:25:03.594Z,12.43
2018-04-17T09:27:06.482Z,14.97
2018-04-17T09:29:09.309Z,13.70
2018-04-17T09:31:12.949Z,11.90
2018-04-17T09:33:15.860Z,14.73
2018-04-17T09:35:18.657Z,14.73
2018-04-17T09:37:21.549Z,9.87
2018-04-17T09:39:26.967Z,8.70
2018-04-17T09:41:29.852Z,7.30
2018-04-17T09:43:32.742Z,11.50
2018-04-17T09:45:35.633Z,13.97
2018-04-17T09:47:38.481Z,9.60
2018-04-17T09:49:41.662Z,9.83
2018-04-17T09:51:44.514Z,12.77
2018-04-17T09:53:47.526Z,9.33
2018-04-17T09:55:50.396Z,12.70
2018-04-17T09:57:53.248Z,12.77
2018-04-17T09:59:56.275Z,10.00
2018-04-17T10:01:59.085Z,11.43
2018-04-17T10:04:02.365Z,8.50
2018-04-17T10:06:05.911Z,10.70
2018-04-17T10:08:08.762Z,8.90
2018-04-17T10:10:11.674Z,11.70
2018-04-17T10:12:19.319Z,14.93
2018-04-17T10:14:22.937Z,11.20
2018-04-17T10:16:25.850Z,9.50
2018-04-17T10:18:28.717Z,9.50
2018-04-17T10:20:31.560Z,8.13
2018-04-17T10:22:34.419Z,8.27
2018-04-17T10:24:37.232Z,11.90
2018-04-17T10:26:40.065Z,10.20
2018-04-17T10:28:42.897Z,9.10
2018-04-17T10:30:45.721Z,10.00
2018-04-17T10:32:48.575Z,9.07
2018-04-17T10:34:51.423Z,10.43
2018-04-17T10:36:59.882Z,9.63
2018-04-17T10:39:03.864Z,9.93
2018-04-17T10:41:06.866Z,9.33
2018-04-17T10:45:19.162Z,9.63
2018-04-17T10:47:23.148Z,6.77
2018-04-17T10:51:33.867Z,10.67
2018-04-17T10:53:36.694Z,8.57
2018-04-17T10:55:42.250Z,11.33
2018-04-17T10:57:45.993Z,15.83
2018-04-17T10:59:48.866Z,11.23
2018-04-17T11:01:53.450Z,9.80
2018-04-17T11:03:57.555Z,12.30
2018-04-17T11:06:01.086Z,11.43
2018-04-17T11:08:04.059Z,9.43
2018-04-17T11:12:15.810Z,16.70
2018-04-17T11:14:19.325Z,16.57
2018-04-17T11:16:24.587Z,9.70
2018-04-17T11:18:30.532Z,12.73
2018-04-17T11:20:39.354Z,11.70
2018-04-17T11:22:42.340Z,8.60
2018-04-17T11:26:55.573Z,12.97
2018-04-17T11:28:58.536Z,10.80
2018-04-17T11:31:02.141Z,10.80
2018-04-17T11:35:17.670Z,9.67
2018-04-17T11:37:20.569Z,10.77
2018-04-17T11:39:24.825Z,9.83
2018-04-17T11:41:27.708Z,10.00
2018-04-17T11:43:30.594Z,9.73
2018-04-17T11:45:34.242Z,7.60
2018-04-17T11:47:37.177Z,9.17
2018-04-17T11:49:40.133Z,9.03
2018-04-17T11:51:43.194Z,11.23
2018-04-17T11:53:46.557Z,8.20
2018-04-17T11:55:49.455Z,8.73
2018-04-17T11:57:52.340Z,8.60
2018-04-17T11:59:56.313Z,16.30
2018-04-17T12:01:59.193Z,10.60
2018-04-17T12:04:03.163Z,11.17
2018-04-17T12:06:09.111Z,35.40
2018-04-17T12:08:12.089Z,11.43
2018-04-17T12:10:15.082Z,12.60
2018-04-17T12:12:34.941Z,10.07
2018-04-17T12:14:44.394Z,9.23
2018-04-17T12:16:52.534Z,11.53
2018-04-17T12:18:56.566Z,10.57
2018-04-17T12:21:02.865Z,9.93
2018-04-17T12:23:05.867Z,10.13
2018-04-17T12:25:15.482Z,9.20
2018-04-17T12:27:19.194Z,9.77
2018-04-17T12:29:27.579Z,10.87
2018-04-17T12:31:36.280Z,13.20
2018-04-17T12:33:42.123Z,9.20
2018-04-17T12:35:56.205Z,8.43
2018-04-17T12:40:27.196Z,10.63
2018-04-17T12:44:38.750Z,13.20
2018-04-17T12:46:43.068Z,12.60
2018-04-17T12:48:46.114Z,10.23
2018-04-17T12:50:50.003Z,11.60
2018-04-17T12:53:04.594Z,11.07
2018-04-17T12:57:18.876Z,21.13
2018-04-17T13:04:20.611Z,8.53
2018-04-17T13:06:23.555Z,15.50
2018-04-17T13:08:33.935Z,8.90
2018-04-17T13:10:37.534Z,10.83
2018-04-17T13:12:47.498Z,13.43
2018-04-17T13:14:50.540Z,15.03
2018-04-17T13:16:59.063Z,9.20
2018-04-17T13:19:15.268Z,10.33
2018-04-17T13:21:18.187Z,9.07
2018-04-17T13:23:21.149Z,11.50
2018-04-17T13:25:26.270Z,9.37
2018-04-17T13:27:31.125Z,12.03
2018-04-17T13:31:49.409Z,7.40
2018-04-17T13:33:52.631Z,9.40
2018-04-17T13:36:14.994Z,9.90
2018-04-17T13:44:55.490Z,9.07
2018-04-17T13:46:58.358Z,8.93
2018-04-17T13:49:01.424Z,10.83
2018-04-17T13:53:20.915Z,7.87
2018-04-17T13:55:24.770Z,11.27
2018-04-17T13:59:41.245Z,9.13
2018-04-17T14:01:46.356Z,8.97
2018-04-17T14:03:57.782Z,11.63
2018-04-17T14:06:07.474Z,8.33
2018-04-17T14:08:12.693Z,12.07
2018-04-17T14:12:30.726Z,10.10
2018-04-17T14:14:44.323Z,7.23
2018-04-17T14:19:21.690Z,7.10
2018-04-17T14:21:25.463Z,9.47
2018-04-17T14:23:28.330Z,12.67
2018-04-17T14:25:31.187Z,34.43
2018-04-17T14:27:34.017Z,15.00
2018-04-17T14:29:36.941Z,11.03
2018-04-17T14:33:47.737Z,16.97
2018-04-17T14:35:50.648Z,16.57
2018-04-17T14:37:56.350Z,18.33
2018-04-17T14:40:01.803Z,44.93
2018-04-17T14:42:12.057Z,19.53
2018-04-17T14:44:16.392Z,29.30
2018-04-17T14:46:20.078Z,19.93
2018-04-17T14:48:23.073Z,11.77
2018-04-17T14:50:25.970Z,18.40
2018-04-17T14:52:28.866Z,11.57
2018-04-17T14:54:31.691Z,11.17
2018-04-17T14:56:37.407Z,10.40
2018-04-17T14:58:40.298Z,8.20
2018-04-17T15:00:46.835Z,9.53
2018-04-17T15:02:49.767Z,14.10
2018-04-17T15:04:57.487Z,11.17
2018-04-17T15:07:01.244Z,7.70
2018-04-17T15:09:08.983Z,8.30
2018-04-17T15:11:11.871Z,10.97
2018-04-17T15:13:14.690Z,11.10
2018-04-17T15:15:17.516Z,9.97
2018-04-17T15:17:20.397Z,8.43
2018-04-17T15:19:23.251Z,8.53
2018-04-17T15:21:26.073Z,10.80
2018-04-17T15:23:28.913Z,19.50
2018-04-17T15:25:31.804Z,32.40
2018-04-17T15:27:34.648Z,33.70
2018-04-17T15:29:38.177Z,28.00
2018-04-17T15:31:41.177Z,40.13
2018-04-17T15:33:44.081Z,12.40
2018-04-17T15:35:46.969Z,17.07
2018-04-17T15:37:49.794Z,13.40
2018-04-17T15:39:52.588Z,11.47
2018-04-17T15:41:55.410Z,11.07
2018-04-17T15:43:58.229Z,10.00
2018-04-17T15:46:01.485Z,15.37
2018-04-17T15:48:04.501Z,13.47
2018-04-17T15:50:07.457Z,25.30
2018-04-17T15:52:10.309Z,24.13
2018-04-17T15:54:13.370Z,13.63
2018-04-17T15:56:16.181Z,14.17
2018-04-17T15:58:19.082Z,8.73
2018-04-17T16:00:22.038Z,13.03
2018-04-17T16:02:24.845Z,10.70
2018-04-17T16:04:27.646Z,20.37
2018-04-17T16:06:30.489Z,19.57
2018-04-17T16:08:33.349Z,10.17
2018-04-17T16:10:36.159Z,12.17
2018-04-17T16:12:38.977Z,13.17
2018-04-17T16:14:41.912Z,9.37
2018-04-17T16:16:44.756Z,11.57
2018-04-17T16:18:47.561Z,9.60
2018-04-17T16:20:50.389Z,12.33
2018-04-17T16:22:53.172Z,13.77
2018-04-17T16:24:56.086Z,10.03
2018-04-17T16:26:58.926Z,16.23
2018-04-17T16:29:01.710Z,15.67
2018-04-17T16:31:04.642Z,12.70
2018-04-17T16:33:07.471Z,9.47
2018-04-17T16:35:10.273Z,11.50
2018-04-17T16:37:13.098Z,10.00
2018-04-17T16:39:15.921Z,12.30
2018-04-17T16:41:28.225Z,11.63
2018-04-17T16:43:32.485Z,13.97
2018-04-17T16:45:35.521Z,10.13
2018-04-17T16:47:38.471Z,10.40
2018-04-17T16:49:44.302Z,14.73
2018-04-17T16:51:47.947Z,14.90
2018-04-17T16:53:51.105Z,15.03
2018-04-17T16:55:56.158Z,11.13
2018-04-17T16:58:02.470Z,10.90
2018-04-17T17:00:08.474Z,9.83
2018-04-17T17:02:12.103Z,12.67
2018-04-17T17:04:16.024Z,13.13
2018-04-17T17:06:25.723Z,12.47
2018-04-17T17:08:29.926Z,11.80
2018-04-17T17:10:33.463Z,11.03
2018-04-17T17:12:38.449Z,10.07
2018-04-17T17:14:41.263Z,11.57
2018-04-17T17:16:44.133Z,10.03
2018-04-17T17:18:49.549Z,13.17
2018-04-17T17:20:59.534Z,15.80
2018-04-17T17:23:02.655Z,11.67
2018-04-17T17:25:08.840Z,15.97
2018-04-17T17:27:13.216Z,10.70
2018-04-17T17:29:17.077Z,16.03
2018-04-17T17:31:21.859Z,10.57
2018-04-17T17:33:25.868Z,11.93
2018-04-17T17:35:29.750Z,13.50
2018-04-17T17:37:32.757Z,10.50
2018-04-17T17:39:38.179Z,11.63
2018-04-17T17:41:42.027Z,14.17
2018-04-17T17:43:44.892Z,16.57
2018-04-17T17:45:47.821Z,13.70
2018-04-17T17:47:50.803Z,15.00
2018-04-17T17:49:53.688Z,14.30
2018-04-17T17:51:56.838Z,12.03
2018-04-17T17:54:00.675Z,13.43
2018-04-17T17:56:03.529Z,11.17
2018-04-17T17:58:08.134Z,12.43
2018-04-17T18:00:13.697Z,13.00
2018-04-17T18:02:19.108Z,15.37
2018-04-17T18:04:30.409Z,10.70
2018-04-17T18:06:35.928Z,14.23
2018-04-17T18:08:40.957Z,15.70
2018-04-17T18:12:53.492Z,19.27
2018-04-17T18:14:56.409Z,24.37
2018-04-17T18:17:00.728Z,18.67
2018-04-17T18:19:05.795Z,18.17
2018-04-17T18:21:09.669Z,17.03
2018-04-17T18:23:13.232Z,18.50
2018-04-17T18:25:16.067Z,24.57
2018-04-17T18:27:18.891Z,31.93
2018-04-17T18:29:21.883Z,22.67
2018-04-17T18:31:24.801Z,24.93
2018-04-17T18:33:27.717Z,18.43
2018-04-17T18:35:30.642Z,24.80
2018-04-17T18:37:33.475Z,15.70
2018-04-17T18:39:36.368Z,11.80
2018-04-17T18:41:41.203Z,11.47
2018-04-17T18:43:45.818Z,14.10
2018-04-17T18:45:48.762Z,13.03
2018-04-17T18:47:51.641Z,14.10
2018-04-17T18:49:54.466Z,26.63
2018-04-17T18:51:57.362Z,11.63
2018-04-17T18:54:00.235Z,11.33
2018-04-17T18:56:03.030Z,15.03
2018-04-17T20:27:50.977Z,12.97
2018-04-17T20:29:59.985Z,22.80
2018-04-17T20:32:04.117Z,11.73
2018-04-17T20:36:16.505Z,9.93
2018-04-17T20:38:19.383Z,18.13
2018-04-17T20:40:23.917Z,13.93
2018-04-17T20:52:54.233Z,13.20
2018-04-17T21:40:43.620Z,15.20
